sensor_id;sensor_type;location;lat;lon;timestamp;temperature;humidity
1083;DHT22;530;51.448;7.238;2023-12-20T00:01:23;8.40;99.90
1083;DHT22;530;51.448;7.238;2023-12-20T00:03:49;8.30;99.90
1083;DHT22;530;51.448;7.238;2023-12-20T00:06:15;8.30;99.90
1083;DHT22;530;51.448;7.238;2023-12-20T00:08:40;8.40;99.90
1083;DHT22;530;51.448;7.238;2023-12-20T00:11:06;8.30;99.90
1083;DHT22;530;51.448;7.238;2023-12-20T00:13:32;8.40;99.90
1083;DHT22;530;51.448;7.238;2023-12-20T00:15:57;8.40;99.90
1083;DHT22;530;51.448;7.238;2023-12-20T00:18:23;8.30;99.90
1083;DHT22;530;51.448;7.238;2023-12-20T00:20:49;8.40;99.90
1083;DHT22;530;51.448;7.238;2023-12-20T00:23:14;8.40;99.90
1083;DHT22;530;51.448;7.238;2023-12-20T00:25:40;8.30;99.90
1083;DHT22;530;51.448;7.238;2023-12-20T00:28:06;8.40;99.90
1083;DHT22;530;51.448;7.238;2023-12-20T00:30:32;8.30;99.90
1083;DHT22;530;51.448;7.238;2023-12-20T00:32:57;8.40;99.90
1083;DHT22;530;51.448;7.238;2023-12-20T00:35:23;8.40;99.90
1083;DHT22;530;51.448;7.238;2023-12-20T00:37:49;8.40;99.90
1083;DHT22;530;51.448;7.238;2023-12-20T00:40:15;8.40;99.90
1083;DHT22;530;51.448;7.238;2023-12-20T00:42:41;8.30;99.90
1083;DHT22;530;51.448;7.238;2023-12-20T00:45:07;8.30;99.90
1083;DHT22;530;51.448;7.238;2023-12-20T00:47:32;8.30;99.90
1083;DHT22;530;51.448;7.238;2023-12-20T00:49:58;8.30;99.90
1083;DHT22;530;51.448;7.238;2023-12-20T00:52:24;8.30;99.90
1083;DHT22;530;51.448;7.238;2023-12-20T00:54:50;8.20;99.90
1083;DHT22;530;51.448;7.238;2023-12-20T00:57:16;8.20;99.90
1083;DHT22;530;51.448;7.238;2023-12-20T00:59:42;8.20;99.90
1083;DHT22;530;51.448;7.238;2023-12-20T01:02:07;8.20;99.90
1083;DHT22;530;51.448;7.238;2023-12-20T01:04:34;8.10;99.90
1083;DHT22;530;51.448;7.238;2023-12-20T01:07:00;8.10;99.90
1083;DHT22;530;51.448;7.238;2023-12-20T01:09:25;8.10;99.90
1083;DHT22;530;51.448;7.238;2023-12-20T01:11:54;8.10;99.90
1083;DHT22;530;51.448;7.238;2023-12-20T01:14:20;8.10;99.90
1083;DHT22;530;51.448;7.238;2023-12-20T01:16:46;8.10;99.90
1083;DHT22;530;51.448;7.238;2023-12-20T01:19:12;8.00;99.90
1083;DHT22;530;51.448;7.238;2023-12-20T01:21:39;8.00;99.90
1083;DHT22;530;51.448;7.238;2023-12-20T01:24:04;8.00;99.90
1083;DHT22;530;51.448;7.238;2023-12-20T01:26:30;8.00;99.90
1083;DHT22;530;51.448;7.238;2023-12-20T01:28:56;8.00;99.90
1083;DHT22;530;51.448;7.238;2023-12-20T01:31:21;8.00;99.90
1083;DHT22;530;51.448;7.238;2023-12-20T01:33:47;8.00;99.90
1083;DHT22;530;51.448;7.238;2023-12-20T01:36:13;8.00;99.90
1083;DHT22;530;51.448;7.238;2023-12-20T01:38:38;8.00;99.90
1083;DHT22;530;51.448;7.238;2023-12-20T01:41:04;8.00;99.90
1083;DHT22;530;51.448;7.238;2023-12-20T01:43:30;7.90;99.90
1083;DHT22;530;51.448;7.238;2023-12-20T01:45:59;7.90;99.90
1083;DHT22;530;51.448;7.238;2023-12-20T01:48:26;7.90;99.90
1083;DHT22;530;51.448;7.238;2023-12-20T01:50:52;7.90;99.90
1083;DHT22;530;51.448;7.238;2023-12-20T01:53:21;7.90;99.90
1083;DHT22;530;51.448;7.238;2023-12-20T01:55:48;7.90;99.90
1083;DHT22;530;51.448;7.238;2023-12-20T01:58:16;7.80;99.90
1083;DHT22;530;51.448;7.238;2023-12-20T02:00:42;7.90;99.90
1083;DHT22;530;51.448;7.238;2023-12-20T02:03:08;7.90;99.90
1083;DHT22;530;51.448;7.238;2023-12-20T02:05:35;7.80;99.90
1083;DHT22;530;51.448;7.238;2023-12-20T02:08:02;7.80;99.90
1083;DHT22;530;51.448;7.238;2023-12-20T02:10:28;7.80;99.90
1083;DHT22;530;51.448;7.238;2023-12-20T02:12:54;7.80;99.90
1083;DHT22;530;51.448;7.238;2023-12-20T02:15:20;7.80;99.90
1083;DHT22;530;51.448;7.238;2023-12-20T02:17:47;7.80;99.90
1083;DHT22;530;51.448;7.238;2023-12-20T02:20:13;7.80;99.90
1083;DHT22;530;51.448;7.238;2023-12-20T02:22:39;7.80;99.90
1083;DHT22;530;51.448;7.238;2023-12-20T02:25:05;7.70;99.90
1083;DHT22;530;51.448;7.238;2023-12-20T02:27:31;7.70;99.90
1083;DHT22;530;51.448;7.238;2023-12-20T02:29:57;7.70;99.90
1083;DHT22;530;51.448;7.238;2023-12-20T02:32:24;7.70;99.90
1083;DHT22;530;51.448;7.238;2023-12-20T02:34:53;7.70;99.90
1083;DHT22;530;51.448;7.238;2023-12-20T02:37:19;7.70;99.90
1083;DHT22;530;51.448;7.238;2023-12-20T02:39:44;7.70;99.90
1083;DHT22;530;51.448;7.238;2023-12-20T02:42:10;7.70;99.90
1083;DHT22;530;51.448;7.238;2023-12-20T02:44:36;7.70;99.90
1083;DHT22;530;51.448;7.238;2023-12-20T02:47:02;7.70;99.90
1083;DHT22;530;51.448;7.238;2023-12-20T02:49:28;7.60;99.90
1083;DHT22;530;51.448;7.238;2023-12-20T02:51:53;7.70;99.90
1083;DHT22;530;51.448;7.238;2023-12-20T02:54:19;7.60;99.90
1083;DHT22;530;51.448;7.238;2023-12-20T02:56:45;7.70;99.90
1083;DHT22;530;51.448;7.238;2023-12-20T02:59:10;7.60;99.90
1083;DHT22;530;51.448;7.238;2023-12-20T03:01:42;7.60;99.90
1083;DHT22;530;51.448;7.238;2023-12-20T03:04:08;7.60;99.90
1083;DHT22;530;51.448;7.238;2023-12-20T03:06:34;7.60;99.90
1083;DHT22;530;51.448;7.238;2023-12-20T03:08:59;7.60;99.90
1083;DHT22;530;51.448;7.238;2023-12-20T03:11:28;7.60;99.90
1083;DHT22;530;51.448;7.238;2023-12-20T03:13:55;7.60;99.90
1083;DHT22;530;51.448;7.238;2023-12-20T03:16:21;7.60;99.90
1083;DHT22;530;51.448;7.238;2023-12-20T03:18:46;7.60;99.90
1083;DHT22;530;51.448;7.238;2023-12-20T03:21:12;7.60;99.90
1083;DHT22;530;51.448;7.238;2023-12-20T03:23:38;7.60;99.90
1083;DHT22;530;51.448;7.238;2023-12-20T03:26:09;7.50;99.90
1083;DHT22;530;51.448;7.238;2023-12-20T03:28:36;7.50;99.90
1083;DHT22;530;51.448;7.238;2023-12-20T03:31:02;7.50;99.90
1083;DHT22;530;51.448;7.238;2023-12-20T03:33:29;7.50;99.90
1083;DHT22;530;51.448;7.238;2023-12-20T03:35:54;7.50;99.90
1083;DHT22;530;51.448;7.238;2023-12-20T03:38:21;7.50;99.90
1083;DHT22;530;51.448;7.238;2023-12-20T03:40:47;7.50;99.90
1083;DHT22;530;51.448;7.238;2023-12-20T03:43:12;7.40;99.90
1083;DHT22;530;51.448;7.238;2023-12-20T03:45:38;7.40;99.90
1083;DHT22;530;51.448;7.238;2023-12-20T03:48:04;7.40;99.90
1083;DHT22;530;51.448;7.238;2023-12-20T03:50:30;7.40;99.90
1083;DHT22;530;51.448;7.238;2023-12-20T03:52:55;7.30;99.90
1083;DHT22;530;51.448;7.238;2023-12-20T03:55:21;7.40;99.90
1083;DHT22;530;51.448;7.238;2023-12-20T03:57:47;7.30;99.90
1083;DHT22;530;51.448;7.238;2023-12-20T04:00:13;7.30;99.90
1083;DHT22;530;51.448;7.238;2023-12-20T04:02:39;7.30;99.90
1083;DHT22;530;51.448;7.238;2023-12-20T04:05:06;7.30;99.90
1083;DHT22;530;51.448;7.238;2023-12-20T04:07:32;7.30;99.90
1083;DHT22;530;51.448;7.238;2023-12-20T04:09:58;7.20;99.90
1083;DHT22;530;51.448;7.238;2023-12-20T04:12:24;7.20;99.90
1083;DHT22;530;51.448;7.238;2023-12-20T04:14:50;7.20;99.90
1083;DHT22;530;51.448;7.238;2023-12-20T04:17:16;7.20;99.90
1083;DHT22;530;51.448;7.238;2023-12-20T04:19:42;7.20;99.90
1083;DHT22;530;51.448;7.238;2023-12-20T04:22:08;7.20;99.90
1083;DHT22;530;51.448;7.238;2023-12-20T04:24:34;7.20;99.90
1083;DHT22;530;51.448;7.238;2023-12-20T04:26:59;7.20;99.90
1083;DHT22;530;51.448;7.238;2023-12-20T04:29:25;7.20;99.90
1083;DHT22;530;51.448;7.238;2023-12-20T04:31:51;7.20;99.90
1083;DHT22;530;51.448;7.238;2023-12-20T04:34:17;7.20;99.90
1083;DHT22;530;51.448;7.238;2023-12-20T04:36:43;7.20;99.90
1083;DHT22;530;51.448;7.238;2023-12-20T04:39:10;7.20;99.90
1083;DHT22;530;51.448;7.238;2023-12-20T04:41:35;7.20;99.90
1083;DHT22;530;51.448;7.238;2023-12-20T04:44:01;7.20;99.90
1083;DHT22;530;51.448;7.238;2023-12-20T04:46:27;7.20;99.90
1083;DHT22;530;51.448;7.238;2023-12-20T04:48:53;7.10;99.90
1083;DHT22;530;51.448;7.238;2023-12-20T04:51:18;7.10;99.90
1083;DHT22;530;51.448;7.238;2023-12-20T04:53:44;7.20;99.90
1083;DHT22;530;51.448;7.238;2023-12-20T04:56:10;7.10;99.90
1083;DHT22;530;51.448;7.238;2023-12-20T04:58:35;7.10;99.90
1083;DHT22;530;51.448;7.238;2023-12-20T05:01:01;7.10;99.90
1083;DHT22;530;51.448;7.238;2023-12-20T05:03:27;7.10;99.90
1083;DHT22;530;51.448;7.238;2023-12-20T05:05:52;7.10;99.90
1083;DHT22;530;51.448;7.238;2023-12-20T05:08:18;7.10;99.90
1083;DHT22;530;51.448;7.238;2023-12-20T05:10:44;7.10;99.90
1083;DHT22;530;51.448;7.238;2023-12-20T05:13:09;7.10;99.90
1083;DHT22;530;51.448;7.238;2023-12-20T05:15:35;7.10;99.90
1083;DHT22;530;51.448;7.238;2023-12-20T05:18:01;7.10;99.90
1083;DHT22;530;51.448;7.238;2023-12-20T05:20:26;7.10;99.90
1083;DHT22;530;51.448;7.238;2023-12-20T05:22:52;7.10;99.90
1083;DHT22;530;51.448;7.238;2023-12-20T05:25:18;7.10;99.90
1083;DHT22;530;51.448;7.238;2023-12-20T05:27:44;7.10;99.90
1083;DHT22;530;51.448;7.238;2023-12-20T05:30:10;7.10;99.90
1083;DHT22;530;51.448;7.238;2023-12-20T05:32:36;7.10;99.90
1083;DHT22;530;51.448;7.238;2023-12-20T05:35:01;7.10;99.90
1083;DHT22;530;51.448;7.238;2023-12-20T05:37:28;7.10;99.90
1083;DHT22;530;51.448;7.238;2023-12-20T05:39:54;7.10;99.90
1083;DHT22;530;51.448;7.238;2023-12-20T05:42:20;7.00;99.90
1083;DHT22;530;51.448;7.238;2023-12-20T05:44:45;7.00;99.90
1083;DHT22;530;51.448;7.238;2023-12-20T05:47:11;7.00;99.90
1083;DHT22;530;51.448;7.238;2023-12-20T05:49:36;7.00;99.90
1083;DHT22;530;51.448;7.238;2023-12-20T05:52:02;7.10;99.90
1083;DHT22;530;51.448;7.238;2023-12-20T05:54:28;7.00;99.90
1083;DHT22;530;51.448;7.238;2023-12-20T05:56:54;7.00;99.90
1083;DHT22;530;51.448;7.238;2023-12-20T05:59:19;7.10;99.90
1083;DHT22;530;51.448;7.238;2023-12-20T06:01:45;7.00;99.90
1083;DHT22;530;51.448;7.238;2023-12-20T06:04:11;7.00;99.90
1083;DHT22;530;51.448;7.238;2023-12-20T06:06:43;7.00;99.90
1083;DHT22;530;51.448;7.238;2023-12-20T06:09:10;7.00;99.90
1083;DHT22;530;51.448;7.238;2023-12-20T06:11:36;7.00;99.90
1083;DHT22;530;51.448;7.238;2023-12-20T06:14:01;7.00;99.90
1083;DHT22;530;51.448;7.238;2023-12-20T06:16:27;7.00;99.90
1083;DHT22;530;51.448;7.238;2023-12-20T06:18:53;7.00;99.90
1083;DHT22;530;51.448;7.238;2023-12-20T06:21:19;7.00;99.90
1083;DHT22;530;51.448;7.238;2023-12-20T06:23:44;6.90;99.90
1083;DHT22;530;51.448;7.238;2023-12-20T06:26:10;7.00;99.90
1083;DHT22;530;51.448;7.238;2023-12-20T06:28:36;7.00;99.90
1083;DHT22;530;51.448;7.238;2023-12-20T06:31:01;6.90;99.90
1083;DHT22;530;51.448;7.238;2023-12-20T06:33:28;7.00;99.90
1083;DHT22;530;51.448;7.238;2023-12-20T06:35:54;6.90;99.90
1083;DHT22;530;51.448;7.238;2023-12-20T06:38:20;7.00;99.90
1083;DHT22;530;51.448;7.238;2023-12-20T06:40:46;7.00;99.90
1083;DHT22;530;51.448;7.238;2023-12-20T06:43:12;7.00;99.90
1083;DHT22;530;51.448;7.238;2023-12-20T06:45:39;6.90;99.90
1083;DHT22;530;51.448;7.238;2023-12-20T06:48:05;7.00;99.90
1083;DHT22;530;51.448;7.238;2023-12-20T06:50:30;6.90;99.90
1083;DHT22;530;51.448;7.238;2023-12-20T06:52:56;6.90;99.90
1083;DHT22;530;51.448;7.238;2023-12-20T06:55:22;6.90;99.90
1083;DHT22;530;51.448;7.238;2023-12-20T06:57:47;6.90;99.90
1083;DHT22;530;51.448;7.238;2023-12-20T07:00:13;6.90;99.90
1083;DHT22;530;51.448;7.238;2023-12-20T07:02:39;6.90;99.90
1083;DHT22;530;51.448;7.238;2023-12-20T07:05:05;6.90;99.90
1083;DHT22;530;51.448;7.238;2023-12-20T07:07:31;6.90;99.90
1083;DHT22;530;51.448;7.238;2023-12-20T07:09:57;6.90;99.90
1083;DHT22;530;51.448;7.238;2023-12-20T07:12:23;6.90;99.90
1083;DHT22;530;51.448;7.238;2023-12-20T07:14:48;6.90;99.90
1083;DHT22;530;51.448;7.238;2023-12-20T07:17:14;7.00;99.90
1083;DHT22;530;51.448;7.238;2023-12-20T07:19:41;7.00;99.90
1083;DHT22;530;51.448;7.238;2023-12-20T07:22:07;7.00;99.90
1083;DHT22;530;51.448;7.238;2023-12-20T07:24:33;7.00;99.90
1083;DHT22;530;51.448;7.238;2023-12-20T07:26:59;7.00;99.90
1083;DHT22;530;51.448;7.238;2023-12-20T07:29:25;7.00;99.90
1083;DHT22;530;51.448;7.238;2023-12-20T07:31:53;7.00;99.90
1083;DHT22;530;51.448;7.238;2023-12-20T07:34:20;7.00;99.90
1083;DHT22;530;51.448;7.238;2023-12-20T07:36:46;7.00;99.90
1083;DHT22;530;51.448;7.238;2023-12-20T07:39:12;7.00;99.90
1083;DHT22;530;51.448;7.238;2023-12-20T07:41:38;7.00;99.90
1083;DHT22;530;51.448;7.238;2023-12-20T07:44:04;6.90;99.90
1083;DHT22;530;51.448;7.238;2023-12-20T07:46:30;7.00;99.90
1083;DHT22;530;51.448;7.238;2023-12-20T07:48:56;7.00;99.90
1083;DHT22;530;51.448;7.238;2023-12-20T07:51:21;7.00;99.90
1083;DHT22;530;51.448;7.238;2023-12-20T07:53:47;7.00;99.90
1083;DHT22;530;51.448;7.238;2023-12-20T07:56:16;7.00;99.90
1083;DHT22;530;51.448;7.238;2023-12-20T07:58:42;7.00;99.90
1083;DHT22;530;51.448;7.238;2023-12-20T08:01:08;7.00;99.90
1083;DHT22;530;51.448;7.238;2023-12-20T08:03:34;7.00;99.90
1083;DHT22;530;51.448;7.238;2023-12-20T08:05:59;7.10;99.90
1083;DHT22;530;51.448;7.238;2023-12-20T08:08:26;7.00;99.90
1083;DHT22;530;51.448;7.238;2023-12-20T08:10:51;7.00;99.90
1083;DHT22;530;51.448;7.238;2023-12-20T08:13:17;7.10;99.90
1083;DHT22;530;51.448;7.238;2023-12-20T08:15:43;7.00;99.90
1083;DHT22;530;51.448;7.238;2023-12-20T08:18:08;7.00;99.90
1083;DHT22;530;51.448;7.238;2023-12-20T08:20:34;7.00;99.90
1083;DHT22;530;51.448;7.238;2023-12-20T08:22:59;7.00;99.90
1083;DHT22;530;51.448;7.238;2023-12-20T08:25:26;7.00;99.90
1083;DHT22;530;51.448;7.238;2023-12-20T08:27:52;7.00;99.90
1083;DHT22;530;51.448;7.238;2023-12-20T08:30:18;7.00;99.90
1083;DHT22;530;51.448;7.238;2023-12-20T08:32:48;7.00;99.90
1083;DHT22;530;51.448;7.238;2023-12-20T08:35:13;7.10;99.90
1083;DHT22;530;51.448;7.238;2023-12-20T08:37:39;7.00;99.90
1083;DHT22;530;51.448;7.238;2023-12-20T08:40:05;7.00;99.90
1083;DHT22;530;51.448;7.238;2023-12-20T08:42:31;7.10;99.90
1083;DHT22;530;51.448;7.238;2023-12-20T08:44:58;7.00;99.90
1083;DHT22;530;51.448;7.238;2023-12-20T08:47:26;7.10;99.90
1083;DHT22;530;51.448;7.238;2023-12-20T08:49:52;7.10;99.90
1083;DHT22;530;51.448;7.238;2023-12-20T08:52:24;7.10;99.90
1083;DHT22;530;51.448;7.238;2023-12-20T08:54:53;7.10;99.90
1083;DHT22;530;51.448;7.238;2023-12-20T08:57:22;7.10;99.90
1083;DHT22;530;51.448;7.238;2023-12-20T08:59:51;7.10;99.90
1083;DHT22;530;51.448;7.238;2023-12-20T09:02:17;7.10;99.90
1083;DHT22;530;51.448;7.238;2023-12-20T09:04:43;7.20;99.90
1083;DHT22;530;51.448;7.238;2023-12-20T09:07:25;7.10;99.90
1083;DHT22;530;51.448;7.238;2023-12-20T09:09:51;7.20;99.90
1083;DHT22;530;51.448;7.238;2023-12-20T09:12:20;7.20;99.90
1083;DHT22;530;51.448;7.238;2023-12-20T09:14:47;7.20;99.90
1083;DHT22;530;51.448;7.238;2023-12-20T09:17:13;7.20;99.90
1083;DHT22;530;51.448;7.238;2023-12-20T09:19:39;7.20;99.90
1083;DHT22;530;51.448;7.238;2023-12-20T09:22:05;7.20;99.90
1083;DHT22;530;51.448;7.238;2023-12-20T09:24:31;7.20;99.90
1083;DHT22;530;51.448;7.238;2023-12-20T09:26:57;7.20;99.90
1083;DHT22;530;51.448;7.238;2023-12-20T09:29:23;7.20;99.90
1083;DHT22;530;51.448;7.238;2023-12-20T09:31:50;7.20;99.90
1083;DHT22;530;51.448;7.238;2023-12-20T09:34:16;7.20;99.90
1083;DHT22;530;51.448;7.238;2023-12-20T09:36:42;7.20;99.90
1083;DHT22;530;51.448;7.238;2023-12-20T09:39:19;7.20;99.90
1083;DHT22;530;51.448;7.238;2023-12-20T09:42:01;7.30;99.90
1083;DHT22;530;51.448;7.238;2023-12-20T09:44:28;7.20;99.90
1083;DHT22;530;51.448;7.238;2023-12-20T09:46:55;7.20;99.90
1083;DHT22;530;51.448;7.238;2023-12-20T09:49:21;7.20;99.90
1083;DHT22;530;51.448;7.238;2023-12-20T09:51:47;7.20;99.90
1083;DHT22;530;51.448;7.238;2023-12-20T09:54:23;7.20;99.90
1083;DHT22;530;51.448;7.238;2023-12-20T09:56:49;7.20;99.90
1083;DHT22;530;51.448;7.238;2023-12-20T09:59:15;7.30;99.90
1083;DHT22;530;51.448;7.238;2023-12-20T10:01:41;7.30;99.90
1083;DHT22;530;51.448;7.238;2023-12-20T10:04:09;7.30;99.90
1083;DHT22;530;51.448;7.238;2023-12-20T10:06:44;7.30;99.90
1083;DHT22;530;51.448;7.238;2023-12-20T10:09:11;7.30;99.90
1083;DHT22;530;51.448;7.238;2023-12-20T10:11:40;7.30;99.90
1083;DHT22;530;51.448;7.238;2023-12-20T10:14:07;7.30;99.90
1083;DHT22;530;51.448;7.238;2023-12-20T10:16:33;7.30;99.90
1083;DHT22;530;51.448;7.238;2023-12-20T10:19:00;7.40;99.90
1083;DHT22;530;51.448;7.238;2023-12-20T10:21:26;7.30;99.90
1083;DHT22;530;51.448;7.238;2023-12-20T10:23:56;7.40;99.90
1083;DHT22;530;51.448;7.238;2023-12-20T10:26:23;7.30;99.90
1083;DHT22;530;51.448;7.238;2023-12-20T10:28:59;7.30;99.90
1083;DHT22;530;51.448;7.238;2023-12-20T10:31:32;7.30;99.90
1083;DHT22;530;51.448;7.238;2023-12-20T10:34:00;7.40;99.90
1083;DHT22;530;51.448;7.238;2023-12-20T10:36:27;7.30;99.90
1083;DHT22;530;51.448;7.238;2023-12-20T10:38:54;7.30;99.90
1083;DHT22;530;51.448;7.238;2023-12-20T10:43:51;7.40;99.90
1083;DHT22;530;51.448;7.238;2023-12-20T10:46:19;7.30;99.90
1083;DHT22;530;51.448;7.238;2023-12-20T10:48:45;7.30;99.90
1083;DHT22;530;51.448;7.238;2023-12-20T10:51:14;7.30;99.90
1083;DHT22;530;51.448;7.238;2023-12-20T10:53:43;7.40;99.90
1083;DHT22;530;51.448;7.238;2023-12-20T10:56:12;7.40;99.90
1083;DHT22;530;51.448;7.238;2023-12-20T10:58:42;7.40;99.90
1083;DHT22;530;51.448;7.238;2023-12-20T11:01:09;7.40;99.90
1083;DHT22;530;51.448;7.238;2023-12-20T11:03:36;7.30;99.90
1083;DHT22;530;51.448;7.238;2023-12-20T11:06:10;7.40;99.90
1083;DHT22;530;51.448;7.238;2023-12-20T11:11:29;7.30;99.90
1083;DHT22;530;51.448;7.238;2023-12-20T11:14:19;7.30;99.90
1083;DHT22;530;51.448;7.238;2023-12-20T11:16:45;7.40;99.90
1083;DHT22;530;51.448;7.238;2023-12-20T11:19:11;7.30;99.90
1083;DHT22;530;51.448;7.238;2023-12-20T11:21:40;7.40;99.90
1083;DHT22;530;51.448;7.238;2023-12-20T11:24:06;7.30;99.90
1083;DHT22;530;51.448;7.238;2023-12-20T11:26:32;7.40;99.90
1083;DHT22;530;51.448;7.238;2023-12-20T11:32:00;7.40;99.90
1083;DHT22;530;51.448;7.238;2023-12-20T11:34:32;7.40;99.90
1083;DHT22;530;51.448;7.238;2023-12-20T11:36:59;7.40;99.90
1083;DHT22;530;51.448;7.238;2023-12-20T11:39:26;7.50;99.90
1083;DHT22;530;51.448;7.238;2023-12-20T11:41:55;7.40;99.90
1083;DHT22;530;51.448;7.238;2023-12-20T11:44:22;7.50;99.90
1083;DHT22;530;51.448;7.238;2023-12-20T11:46:47;7.50;99.90
1083;DHT22;530;51.448;7.238;2023-12-20T11:49:13;7.50;99.90
1083;DHT22;530;51.448;7.238;2023-12-20T11:51:42;7.50;99.90
1083;DHT22;530;51.448;7.238;2023-12-20T11:54:09;7.50;99.90
1083;DHT22;530;51.448;7.238;2023-12-20T11:56:36;7.50;99.90
1083;DHT22;530;51.448;7.238;2023-12-20T11:59:02;7.50;99.90
1083;DHT22;530;51.448;7.238;2023-12-20T12:01:28;7.50;99.90
1083;DHT22;530;51.448;7.238;2023-12-20T12:04:06;7.50;99.90
1083;DHT22;530;51.448;7.238;2023-12-20T12:06:32;7.60;99.90
1083;DHT22;530;51.448;7.238;2023-12-20T12:08:58;7.60;99.90
1083;DHT22;530;51.448;7.238;2023-12-20T12:11:24;7.60;99.90
1083;DHT22;530;51.448;7.238;2023-12-20T12:13:50;7.60;99.90
1083;DHT22;530;51.448;7.238;2023-12-20T12:16:20;7.50;99.90
1083;DHT22;530;51.448;7.238;2023-12-20T12:18:46;7.50;99.90
1083;DHT22;530;51.448;7.238;2023-12-20T12:21:19;7.50;99.90
1083;DHT22;530;51.448;7.238;2023-12-20T12:23:46;7.50;99.90
1083;DHT22;530;51.448;7.238;2023-12-20T12:26:12;7.50;99.90
1083;DHT22;530;51.448;7.238;2023-12-20T12:28:40;7.50;99.90
1083;DHT22;530;51.448;7.238;2023-12-20T12:31:06;7.50;99.90
1083;DHT22;530;51.448;7.238;2023-12-20T12:33:32;7.50;99.90
1083;DHT22;530;51.448;7.238;2023-12-20T12:35:58;7.50;99.90
1083;DHT22;530;51.448;7.238;2023-12-20T12:38:25;7.50;99.90
1083;DHT22;530;51.448;7.238;2023-12-20T12:40:50;7.50;99.90
1083;DHT22;530;51.448;7.238;2023-12-20T12:43:18;7.50;99.90
1083;DHT22;530;51.448;7.238;2023-12-20T12:45:44;7.50;99.90
1083;DHT22;530;51.448;7.238;2023-12-20T12:48:10;7.50;99.90
1083;DHT22;530;51.448;7.238;2023-12-20T12:50:36;7.50;99.90
1083;DHT22;530;51.448;7.238;2023-12-20T12:53:02;7.50;99.90
1083;DHT22;530;51.448;7.238;2023-12-20T12:55:28;7.50;99.90
1083;DHT22;530;51.448;7.238;2023-12-20T12:57:54;7.60;99.90
1083;DHT22;530;51.448;7.238;2023-12-20T13:00:20;7.50;99.90
1083;DHT22;530;51.448;7.238;2023-12-20T13:02:47;7.50;99.90
1083;DHT22;530;51.448;7.238;2023-12-20T13:05:13;7.50;99.90
1083;DHT22;530;51.448;7.238;2023-12-20T13:07:38;7.60;99.90
1083;DHT22;530;51.448;7.238;2023-12-20T13:10:05;7.50;99.90
1083;DHT22;530;51.448;7.238;2023-12-20T13:12:31;7.50;99.90
1083;DHT22;530;51.448;7.238;2023-12-20T13:14:57;7.60;99.90
1083;DHT22;530;51.448;7.238;2023-12-20T13:17:23;7.50;99.90
1083;DHT22;530;51.448;7.238;2023-12-20T13:19:49;7.60;99.90
1083;DHT22;530;51.448;7.238;2023-12-20T13:22:15;7.60;99.90
1083;DHT22;530;51.448;7.238;2023-12-20T13:24:41;7.60;99.90
1083;DHT22;530;51.448;7.238;2023-12-20T13:27:10;7.60;99.90
1083;DHT22;530;51.448;7.238;2023-12-20T13:29:35;7.60;99.90
1083;DHT22;530;51.448;7.238;2023-12-20T13:32:01;7.60;99.90
1083;DHT22;530;51.448;7.238;2023-12-20T13:34:29;7.50;99.90
1083;DHT22;530;51.448;7.238;2023-12-20T13:36:54;7.60;99.90
1083;DHT22;530;51.448;7.238;2023-12-20T13:39:20;7.60;99.90
1083;DHT22;530;51.448;7.238;2023-12-20T13:41:46;7.60;99.90
1083;DHT22;530;51.448;7.238;2023-12-20T13:44:13;7.60;99.90
1083;DHT22;530;51.448;7.238;2023-12-20T13:46:39;7.60;99.90
1083;DHT22;530;51.448;7.238;2023-12-20T13:49:05;7.60;99.90
1083;DHT22;530;51.448;7.238;2023-12-20T13:51:31;7.60;99.90
1083;DHT22;530;51.448;7.238;2023-12-20T13:53:56;7.50;99.90
1083;DHT22;530;51.448;7.238;2023-12-20T13:56:23;7.50;99.90
1083;DHT22;530;51.448;7.238;2023-12-20T13:58:49;7.50;99.90
1083;DHT22;530;51.448;7.238;2023-12-20T14:01:16;7.50;99.90
1083;DHT22;530;51.448;7.238;2023-12-20T14:03:42;7.50;99.90
1083;DHT22;530;51.448;7.238;2023-12-20T14:06:07;7.50;99.90
1083;DHT22;530;51.448;7.238;2023-12-20T14:08:33;7.50;99.90
1083;DHT22;530;51.448;7.238;2023-12-20T14:10:59;7.50;99.90
1083;DHT22;530;51.448;7.238;2023-12-20T14:13:26;7.60;99.90
1083;DHT22;530;51.448;7.238;2023-12-20T14:15:52;7.60;99.90
1083;DHT22;530;51.448;7.238;2023-12-20T14:18:19;7.50;99.90
1083;DHT22;530;51.448;7.238;2023-12-20T14:20:45;7.50;99.90
1083;DHT22;530;51.448;7.238;2023-12-20T14:23:12;7.50;99.90
1083;DHT22;530;51.448;7.238;2023-12-20T14:25:41;7.50;99.90
1083;DHT22;530;51.448;7.238;2023-12-20T14:28:07;7.50;99.90
1083;DHT22;530;51.448;7.238;2023-12-20T14:30:33;7.50;99.90
1083;DHT22;530;51.448;7.238;2023-12-20T14:32:59;7.50;99.90
1083;DHT22;530;51.448;7.238;2023-12-20T14:35:24;7.50;99.90
1083;DHT22;530;51.448;7.238;2023-12-20T14:37:50;7.50;99.90
1083;DHT22;530;51.448;7.238;2023-12-20T14:40:16;7.50;99.90
1083;DHT22;530;51.448;7.238;2023-12-20T14:42:43;7.50;99.90
1083;DHT22;530;51.448;7.238;2023-12-20T14:45:09;7.50;99.90
1083;DHT22;530;51.448;7.238;2023-12-20T14:47:35;7.50;99.90
1083;DHT22;530;51.448;7.238;2023-12-20T14:50:03;7.50;99.90
1083;DHT22;530;51.448;7.238;2023-12-20T14:52:30;7.50;99.90
1083;DHT22;530;51.448;7.238;2023-12-20T14:54:55;7.50;99.90
1083;DHT22;530;51.448;7.238;2023-12-20T14:57:21;7.50;99.90
1083;DHT22;530;51.448;7.238;2023-12-20T14:59:47;7.50;99.90
1083;DHT22;530;51.448;7.238;2023-12-20T15:02:12;7.60;99.90
1083;DHT22;530;51.448;7.238;2023-12-20T15:04:38;7.50;99.90
1083;DHT22;530;51.448;7.238;2023-12-20T15:07:04;7.50;99.90
1083;DHT22;530;51.448;7.238;2023-12-20T15:09:31;7.50;99.90
1083;DHT22;530;51.448;7.238;2023-12-20T15:11:57;7.50;99.90
1083;DHT22;530;51.448;7.238;2023-12-20T15:14:23;7.50;99.90
1083;DHT22;530;51.448;7.238;2023-12-20T15:16:49;7.50;99.90
1083;DHT22;530;51.448;7.238;2023-12-20T15:19:15;7.60;99.90
1083;DHT22;530;51.448;7.238;2023-12-20T15:21:41;7.60;99.90
1083;DHT22;530;51.448;7.238;2023-12-20T15:24:11;7.60;99.90
1083;DHT22;530;51.448;7.238;2023-12-20T15:26:44;7.60;99.90
1083;DHT22;530;51.448;7.238;2023-12-20T15:29:10;7.60;99.90
1083;DHT22;530;51.448;7.238;2023-12-20T15:31:45;7.60;99.90
1083;DHT22;530;51.448;7.238;2023-12-20T15:34:11;7.60;99.90
1083;DHT22;530;51.448;7.238;2023-12-20T15:36:38;7.60;99.90
1083;DHT22;530;51.448;7.238;2023-12-20T15:39:05;7.60;99.90
1083;DHT22;530;51.448;7.238;2023-12-20T15:41:30;7.60;99.90
1083;DHT22;530;51.448;7.238;2023-12-20T15:43:56;7.60;99.90
1083;DHT22;530;51.448;7.238;2023-12-20T15:46:22;7.60;99.90
1083;DHT22;530;51.448;7.238;2023-12-20T15:48:48;7.60;99.90
1083;DHT22;530;51.448;7.238;2023-12-20T15:51:14;7.60;99.90
1083;DHT22;530;51.448;7.238;2023-12-20T15:53:40;7.70;99.90
1083;DHT22;530;51.448;7.238;2023-12-20T15:56:06;7.60;99.90
1083;DHT22;530;51.448;7.238;2023-12-20T15:58:32;7.60;99.90
1083;DHT22;530;51.448;7.238;2023-12-20T16:00:59;7.60;99.90
1083;DHT22;530;51.448;7.238;2023-12-20T16:03:25;7.60;99.90
1083;DHT22;530;51.448;7.238;2023-12-20T16:05:50;7.60;99.90
1083;DHT22;530;51.448;7.238;2023-12-20T16:08:16;7.60;99.90
1083;DHT22;530;51.448;7.238;2023-12-20T16:10:42;7.60;99.90
1083;DHT22;530;51.448;7.238;2023-12-20T16:13:07;7.60;99.90
1083;DHT22;530;51.448;7.238;2023-12-20T16:15:34;7.60;99.90
1083;DHT22;530;51.448;7.238;2023-12-20T16:18:00;7.60;99.90
1083;DHT22;530;51.448;7.238;2023-12-20T16:20:25;7.60;99.90
1083;DHT22;530;51.448;7.238;2023-12-20T16:22:51;7.60;99.90
1083;DHT22;530;51.448;7.238;2023-12-20T16:25:17;7.60;99.90
1083;DHT22;530;51.448;7.238;2023-12-20T16:27:43;7.70;99.90
1083;DHT22;530;51.448;7.238;2023-12-20T16:30:09;7.70;99.90
1083;DHT22;530;51.448;7.238;2023-12-20T16:32:35;7.70;99.90
1083;DHT22;530;51.448;7.238;2023-12-20T16:35:01;7.70;99.90
1083;DHT22;530;51.448;7.238;2023-12-20T16:37:27;7.70;99.90